Terminal Aerodrome Forecast
Issued by NWS Boston, MA

Home | Current Version | Previous Version | Text Only | Print | Product List | Glossary On
Versions: 1 2 3 4 5 6 7 8 9 10 11 12 13 14 15 16 17 18 19 20 21 22 23 24 25 26
000
FTUS41 KBOX 112327
TAFPVD
TAF
KPVD 112327Z 1200/1224 VRB03KT P6SM SCT050
     FM121200 11004KT P6SM OVC020
     FM121500 15011G22KT 6SM -RA OVC020
     FM121600 15011G23KT 6SM -RA OVC015
     FM122100 20009KT 5SM BR OVC015=

USA.gov is the U.S. government's official web portal to all federal, state and local government web resources and services.